Station: Maitland Airport  

  Atmospheric Gas Attenuation - ITU Rec 676-11   ----------------- dB/100km -----------------
Date Time Temp RH % AH g/m3 Dew Point Wind Direction Speed kph Gust kph Barometer mB Rainfall Since 9am 24GHz 47GHz 76GHz 122GHz 134GHz 241GHz
08/05 12:30 19.1 39 6.39 4.8 24 41 1017.5 0 14.7 21.3 29.5 76.9 66.1 226.0
08/05 12:20 18.3 39 6.1 4.1 28 33 1017.5 0 14.1 21.1 28.8 75.0 63.5 216.6
08/05 12:10 18.7 39 6.24 4.5 24 32 1017.7 0 14.4 21.2 29.1 75.9 64.8 221.1
08/05 12:00 18.1 41 6.33 4.7 28 43 1018 0 14.6 21.5 29.7 77.4 66.3 226.4
08/05 11:50 18.3 41 6.41 4.8 19 24 1018.1 0 14.8 21.6 29.9 77.9 67.1 229.1
08/05 11:40 17.5 41 6.11 4.1 32 41 1018.4 0 14.2 21.4 29.1 75.9 64.3 219.3
08/05 11:30 17 42 6.08 4 28 39 1018.7 0 14.1 21.4 29.2 76.1 64.4 219.5
08/05 11:20 16.7 42 5.97 3.7 26 32 1019 0 13.9 21.4 28.9 75.4 63.3 215.9
08/05 11:10 16.3 43 5.97 3.7 35 43 1018.9 0 13.9 21.4 29.1 75.8 63.7 216.9
08/05 11:00 16.4 42 5.86 3.5 28 41 1019.1 0 13.7 21.3 28.7 74.7 62.3 212.2
08/05 10:50 16.3 43 5.97 3.7 30 37 1019.4 0 13.9 21.5 29.1 75.8 63.7 217.0
08/05 10:40 15.7 44 5.89 3.5 33 43 1019.4 0 13.8 21.5 29.0 75.6 63.2 215.3
08/05 10:30 15.5 45 5.95 3.6 28 39 1019.5 0 13.9 21.6 29.3 76.4 64.1 218.3
08/05 10:20 15.6 46 6.12 4 22 37 1019.7 0 14.2 21.9 29.9 77.9 66.0 225.1
08/05 10:10 14.9 46 5.86 3.4 30 37 1019.7 0 13.7 21.6 29.2 76.1 63.5 216.3
08/05 10:00 14.5 48 5.97 3.6 30 44 1019.8 0 14.0 21.9 29.8 77.5 65.1 221.9
08/05 09:50 14.1 48 5.83 3.3 26 33 1019.8 0 13.7 21.8 29.4 76.6 63.8 217.2
08/05 09:40 13.7 48 5.68 2.9 32 39 1019.8 0 13.4 21.7 29.0 75.5 62.3 212.0
08/05 09:30 13.5 49 5.73 3 28 44 1020 0 13.5 21.8 29.3 76.2 63.1 214.6
08/05 09:20 13.2 50 5.74 3 32 37 1020.1 0 13.5 21.9 29.4 76.6 63.5 215.9
08/05 09:10 12.9 50 5.64 2.7 30 39 1020.1 0 13.3 21.8 29.2 75.9 62.5 212.4
08/05 09:00 12.8 50 5.6 2.6 32 46 1020.1 0 13.2 21.8 29.0 75.6 62.1 211.0
08/05 08:50 12.4 51 5.57 2.6 33 41 1020 0 13.2 21.8 29.1 75.7 62.1 210.8
08/05 08:40 12 51 5.44 2.2 35 43 1020.1 0 12.9 21.7 28.7 74.8 60.8 206.3
08/05 08:30 11.8 52 5.47 2.3 26 41 1020.1 0 13.0 21.8 28.9 75.3 61.3 208.1
08/05 08:20 11.7 54 5.65 2.7 20 26 1020.2 0 13.4 22.1 29.6 77.1 63.6 216.1
08/05 08:10 11.1 54 5.44 2.2 30 37 1020 0 13.0 21.9 29.1 75.6 61.5 208.6
08/05 08:00 10.7 55 5.4 2 26 37 1019.9 0 12.9 22.0 29.1 75.6 61.3 207.9
08/05 07:50 10.4 56 5.4 2 26 30 1019.9 0 12.9 22.0 29.2 75.9 61.5 208.7
08/05 07:40 10.1 57 5.39 2 26 30 1019.7 0 12.9 22.1 29.2 76.1 61.6 209.0
08/05 07:30 9.7 58 5.35 1.8 26 41 1019.7 0 12.8 22.1 29.2 76.0 61.5 208.3
08/05 07:20 9.4 59 5.34 1.8 28 35 1020 0 12.8 22.2 29.3 76.3 61.6 208.7
08/05 07:10 9.1 60 5.33 1.8 28 33 1020.2 0 12.8 22.3 29.4 76.5 61.7 209.1
08/05 07:00 8.9 61 5.35 1.8 22 35 1020.1 0 12.8 22.3 29.5 76.8 62.1 210.5
08/05 06:50 8.6 61 5.24 1.5 20 26 1020.3 0 12.6 22.3 29.2 76.0 61.0 206.5
08/05 06:40 8.4 62 5.26 1.6 19 26 1020.2 0 12.7 22.3 29.4 76.4 61.4 207.9
08/05 06:30 8.3 62 5.23 1.5 19 30 1020.1 0 12.6 22.3 29.3 76.2 61.1 206.8
08/05 06:20 8.2 62 5.19 1.4 17 22 1020.1 0 12.5 22.3 29.2 75.9 60.6 205.3
08/05 06:10 8.3 61 5.14 1.2 17 22 1020.1 0 12.4 22.2 28.9 75.3 59.9 202.8
08/05 06:00 8.2 61 5.11 1.1 19 30 1020 0 12.4 22.1 28.9 75.1 59.6 201.8
08/05 05:50 8.3 60 5.06 1 19 22 1019.9 0 12.3 22.0 28.6 74.5 58.9 199.3
08/05 05:40 8.5 59 5.04 1 19 20 1019.7 0 12.2 22.0 28.5 74.1 58.5 197.9
08/05 05:30 8.5 59 5.04 1 19 28 1019.7 0 12.2 22.0 28.5 74.1 58.5 197.9
08/05 05:20 8.5 59 5.04 1 20 24 1019.4 0 12.2 21.9 28.5 74.0 58.5 197.9
08/05 05:10 8.5 58 4.95 0.7 20 26 1019.4 0 12.0 21.8 28.1 73.1 57.4 194.0
08/05 05:00 8.3 59 4.97 0.8 17 24 1019.5 0 12.1 21.9 28.3 73.5 57.8 195.3
08/05 04:50 8.6 58 4.99 0.8 22 26 1019.5 0 12.1 21.8 28.3 73.5 57.8 195.5
08/05 04:40 8.5 58 4.95 0.7 22 28 1019.6 0 12.0 21.8 28.1 73.2 57.4 194.0
08/05 04:30 8.4 58 4.92 0.6 17 22 1019.6 0 11.9 21.8 28.1 73.0 57.1 192.9
08/05 04:20 8.5 58 4.95 0.7 22 26 1019.5 0 12.0 21.8 28.1 73.1 57.4 194.0
08/05 04:10 8.1 59 4.91 0.6 13 15 1019.5 0 11.9 21.8 28.1 73.1 57.2 193.2
08/05 04:00 8 59 4.88 0.5 15 20 1019.5 0 11.9 21.8 28.1 72.9 56.9 192.1
08/05 03:50 8 59 4.88 0.5 15 17 1019.6 0 11.9 21.8 28.1 72.9 56.9 192.2
08/05 03:40 8 59 4.88 0.5 15 20 1019.6 0 11.9 21.8 28.1 72.9 56.9 192.2
08/05 03:30 7.9 59 4.85 0.4 15 19 1019.6 0 11.8 21.8 28.0 72.7 56.6 191.1
08/05 03:20 8 59 4.88 0.5 17 19 1019.6 0 11.9 21.8 28.1 72.9 56.9 192.2
08/05 03:10 8.1 58 4.83 0.3 13 19 1019.7 0 11.8 21.7 27.8 72.3 56.2 189.8
08/05 03:00 7.9 59 4.85 0.4 13 19 1019.9 0 11.8 21.8 28.0 72.7 56.6 191.1
08/05 02:50 8.1 58 4.83 0.3 13 17 1020 0 11.8 21.7 27.9 72.4 56.2 189.8
08/05 02:40 7.9 59 4.85 0.4 13 15 1020 0 11.8 21.8 28.0 72.7 56.6 191.2
08/05 02:30 8.1 58 4.83 0.3 13 20 1020 0 11.8 21.7 27.9 72.4 56.2 189.8
08/05 02:20 8 57 4.71 0 13 17 1020.1 0 11.5 21.6 27.4 71.3 54.8 184.9
08/05 02:10 8.4 56 4.75 0.1 17 19 1020.1 0 11.6 21.6 27.5 71.3 55.1 185.7
08/05 02:00 8.4 55 4.67 -0.1 13 17 1020.2 0 11.4 21.4 27.2 70.5 54.1 182.3
08/05 01:50 8.6 54 4.64 -0.2 15 17 1020.2 0 11.3 21.3 27.0 70.1 53.6 180.5
08/05 01:40 8.5 54 4.61 -0.3 15 17 1020.3 0 11.3 21.3 26.9 69.9 53.3 179.5
08/05 01:30 8.6 53 4.56 -0.4 13 20 1020.2 0 11.2 21.2 26.7 69.3 52.6 177.1
08/05 01:20 9 52 4.59 -0.3 17 20 1020.3 0 11.2 21.2 26.7 69.2 52.7 177.5
08/05 01:10 8.9 51 4.47 -0.7 15 19 1020.3 0 11.0 21.0 26.3 68.1 51.3 172.7
08/05 01:00 9.1 50 4.44 -0.8 19 28 1020.4 0 10.9 20.9 26.1 67.7 50.9 171.0
08/05 00:50 9.2 50 4.47 -0.7 15 19 1020.4 0 11.0 21.0 26.2 67.9 51.2 172.0
08/05 00:40 9.5 49 4.46 -0.7 19 20 1020.3 0 10.9 20.9 26.0 67.5 50.8 171.0
08/05 00:20 10.4 46 4.43 -0.7 19 20 1020.5 0 10.8 20.6 25.7 66.5 49.9 167.9
08/05 00:10 10.5 45 4.37 -0.9 13 17 1020.4 0 10.7 20.5 25.4 65.9 49.2 165.2
08/05 00:00 10.7 45 4.42 -0.7 17 26 1020.5 0 10.8 20.6 25.5 66.2 49.6 166.9
07/05 23:50 10.7 45 4.42 -0.7 13 17 1020.3 0 10.8 20.6 25.5 66.2 49.6 166.8
07/05 23:40 10.6 45 4.39 -0.8 17 22 1020.3 0 10.8 20.5 25.5 66.0 49.3 165.8
07/05 23:30 10.4 45 4.34 -1 15 22 1020.3 0 10.7 20.5 25.3 65.6 48.9 164.1
07/05 23:20 10.5 45 4.37 -0.9 15 17 1020.3 0 10.7 20.5 25.4 65.9 49.2 165.2
07/05 23:10 10.7 44 4.32 -1 15 22 1020.2 0 10.6 20.4 25.2 65.2 48.4 162.7
07/05 23:00 10.7 44 4.32 -1 17 26 1020.1 0 10.6 20.4 25.2 65.2 48.4 162.7
07/05 22:50 10.6 45 4.39 -0.8 17 20 1020.3 0 10.8 20.5 25.5 66.0 49.3 165.8
07/05 22:40 10.6 44 4.3 -1.1 17 20 1020.3 0 10.6 20.4 25.1 65.1 48.3 162.1
07/05 22:30 10.6 44 4.3 -1.1 15 24 1020.2 0 10.6 20.4 25.1 65.1 48.3 162.1
07/05 22:20 10.7 44 4.32 -1 15 19 1020.2 0 10.6 20.4 25.2 65.2 48.4 162.7
07/05 22:10 10.8 43 4.25 -1.3 15 19 1020.3 0 10.5 20.3 24.9 64.5 47.6 159.7
07/05 22:00 10.9 43 4.28 -1.2 17 22 1020.4 0 10.5 20.3 25.0 64.7 47.9 160.7
07/05 21:50 10.7 43 4.22 -1.4 15 19 1020.4 0 10.4 20.3 24.8 64.3 47.3 158.6
07/05 21:40 10.4 43 4.15 -1.6 11 15 1020.4 0 10.3 20.2 24.7 63.9 46.6 156.4
07/05 21:30 10.2 44 4.19 -1.5 13 17 1020.3 0 10.3 20.3 24.9 64.4 47.2 158.4
07/05 21:20 10 44 4.14 -1.7 11 13 1020.2 0 10.2 20.3 24.8 64.1 46.8 156.7
07/05 21:10 10.2 43 4.09 -1.8 9 9 1020.2 0 10.1 20.2 24.5 63.4 46.1 154.3
07/05 21:00 10.4 42 4.05 -1.9 9 13 1020 0 10.0 20.1 24.3 62.9 45.5 152.2
07/05 20:50 11.1 40 4.03 -2 9 13 1019.8 0 10.0 19.9 24.0 62.2 44.8 150.1
07/05 20:40 11.8 38 4 -2 15 20 1019.8 0 9.9 19.7 23.7 61.4 44.1 147.6
07/05 20:30 12.1 37 3.97 -2.1 15 24 1019.8 0 9.8 19.6 23.5 60.9 43.6 145.9
07/05 20:20 12.5 36 3.96 -2.1 13 15 1019.6 0 9.8 19.5 23.4 60.4 43.3 144.8
07/05 20:10 12.5 35 3.85 -2.5 11 17 1019.6 0 9.6 19.3 23.0 59.5 42.1 140.4
07/05 20:00 12.7 35 3.9 -2.3 17 30 1019.5 0 9.7 19.4 23.1 59.8 42.5 142.0
07/05 19:50 12.8 34 3.81 -2.6 20 24 1019.3 0 9.5 19.2 22.8 58.9 41.4 138.3

Last Refresh: 08-May-2026 12:10:18

Bureau of Meteorology